createdAt,value
2022-08-03T00:02:20.294Z,16.50
2022-08-03T00:04:48.155Z,16.50
2022-08-03T00:07:16.302Z,16.50
2022-08-03T00:09:44.645Z,16.50
2022-08-03T00:12:12.835Z,16.54
2022-08-03T00:14:40.705Z,16.60
2022-08-03T00:17:09.629Z,16.60
2022-08-03T00:19:37.296Z,16.70
2022-08-03T00:22:04.996Z,16.70
2022-08-03T00:24:32.648Z,16.62
2022-08-03T00:27:00.371Z,16.50
2022-08-03T00:29:28.145Z,16.50
2022-08-03T00:31:59.507Z,16.50
2022-08-03T00:34:57.878Z,16.50
2022-08-03T00:37:16.872Z,16.42
2022-08-03T00:39:47.299Z,16.40
2022-08-03T00:42:15.843Z,16.40
2022-08-03T00:44:47.285Z,16.40
2022-08-03T00:47:15.163Z,16.50
2022-08-03T00:49:43.310Z,16.50
2022-08-03T00:52:15.496Z,16.60
2022-08-03T00:54:43.602Z,16.60
2022-08-03T00:57:11.582Z,16.60
2022-08-03T00:59:39.788Z,16.60
2022-08-03T01:02:08.236Z,16.58
2022-08-03T01:04:36.036Z,16.46
2022-08-03T01:07:20.678Z,16.40
2022-08-03T01:10:31.583Z,16.32
2022-08-03T01:14:02.001Z,16.30
2022-08-03T01:16:49.767Z,16.30
2022-08-03T01:19:54.442Z,16.20
2022-08-03T01:22:45.159Z,16.10
2022-08-03T01:25:38.610Z,16.12
2022-08-03T01:28:31.345Z,16.10
2022-08-03T01:31:06.739Z,16.10
2022-08-03T01:34:02.814Z,16.10
2022-08-03T01:36:38.572Z,16.10
2022-08-03T01:39:11.545Z,16.10
2022-08-03T01:41:59.381Z,16.00
2022-08-03T01:44:36.085Z,16.00
2022-08-03T01:47:06.505Z,15.96
2022-08-03T01:49:40.687Z,15.90
2022-08-03T01:52:09.553Z,15.90
2022-08-03T01:54:44.320Z,15.80
2022-08-03T01:57:15.209Z,15.80
2022-08-03T01:59:44.805Z,15.80
2022-08-03T02:02:33.591Z,15.80
2022-08-03T02:05:10.584Z,15.90
2022-08-03T02:07:42.793Z,15.80
2022-08-03T02:10:14.534Z,15.80
2022-08-03T02:12:46.457Z,15.70
2022-08-03T02:15:18.510Z,15.70
2022-08-03T02:17:48.627Z,15.62
2022-08-03T02:20:17.505Z,15.60
2022-08-03T02:22:46.814Z,15.60
2022-08-03T02:25:17.570Z,15.60
2022-08-03T02:27:56.567Z,15.70
2022-08-03T02:30:38.697Z,15.70
2022-08-03T02:33:19.950Z,15.70
2022-08-03T02:35:50.471Z,15.70
2022-08-03T02:38:23.679Z,15.70
2022-08-03T02:40:55.520Z,15.70
2022-08-03T02:43:24.868Z,15.78
2022-08-03T02:45:54.513Z,15.80
2022-08-03T02:48:27.459Z,15.80
2022-08-03T02:51:00.585Z,15.86
2022-08-03T02:53:30.681Z,15.90
2022-08-03T02:56:02.364Z,15.90
2022-08-03T02:58:32.379Z,15.94
2022-08-03T03:01:01.941Z,16.00
2022-08-03T03:03:31.920Z,16.00
2022-08-03T03:06:05.712Z,16.02
2022-08-03T03:08:34.445Z,16.00
2022-08-03T03:11:05.508Z,16.00
2022-08-03T03:13:34.333Z,16.00
2022-08-03T03:16:06.333Z,16.00
2022-08-03T03:18:35.400Z,16.00
2022-08-03T03:21:05.352Z,16.00
2022-08-03T03:23:37.470Z,16.00
2022-08-03T03:26:08.209Z,15.98
2022-08-03T03:28:39.658Z,16.00
2022-08-03T03:31:08.784Z,16.00
2022-08-03T03:33:39.077Z,16.10
2022-08-03T03:36:08.493Z,16.10
2022-08-03T03:38:37.197Z,16.20
2022-08-03T03:41:05.801Z,16.20
2022-08-03T03:43:34.156Z,16.20
2022-08-03T03:46:02.949Z,16.20
2022-08-03T03:48:30.797Z,16.10
2022-08-03T03:51:01.424Z,16.10
2022-08-03T03:53:29.212Z,16.12
2022-08-03T03:55:59.774Z,16.20
2022-08-03T03:58:32.881Z,16.20
2022-08-03T04:01:01.810Z,16.20
2022-08-03T04:03:29.706Z,16.12
2022-08-03T04:06:16.958Z,16.10
2022-08-03T04:09:04.465Z,16.10
2022-08-03T04:11:40.703Z,16.10
2022-08-03T04:14:13.600Z,16.10
2022-08-03T04:16:52.201Z,16.10
2022-08-03T04:19:40.354Z,16.20
2022-08-03T04:22:14.129Z,16.22
2022-08-03T04:24:53.753Z,16.30
2022-08-03T04:27:26.266Z,16.30
2022-08-03T04:29:57.452Z,16.30
2022-08-03T04:32:28.757Z,16.38
2022-08-03T04:34:57.444Z,16.40
2022-08-03T04:37:48.101Z,16.40
2022-08-03T04:40:25.238Z,16.48
2022-08-03T04:43:00.142Z,16.50
2022-08-03T04:45:30.537Z,16.50
2022-08-03T04:47:59.601Z,16.54
2022-08-03T04:50:31.256Z,16.54
2022-08-03T04:52:59.810Z,16.60
2022-08-03T04:55:31.582Z,16.60
2022-08-03T04:58:02.238Z,16.60
2022-08-03T05:00:30.502Z,16.60
2022-08-03T05:02:58.485Z,16.64
2022-08-03T05:05:26.976Z,16.80
2022-08-03T05:08:14.626Z,16.94
2022-08-03T05:10:42.292Z,17.00
2022-08-03T05:13:14.003Z,17.10
2022-08-03T05:15:43.002Z,17.10
2022-08-03T05:18:14.098Z,17.20
2022-08-03T05:20:42.140Z,17.20
2022-08-03T05:23:09.832Z,17.30
2022-08-03T05:25:37.505Z,17.30
2022-08-03T05:28:07.235Z,17.40
2022-08-03T05:30:35.016Z,17.40
2022-08-03T05:33:04.284Z,17.40
2022-08-03T05:35:56.096Z,17.40
2022-08-03T05:38:28.349Z,17.56
2022-08-03T05:41:21.711Z,17.60
2022-08-03T05:43:47.024Z,17.80
2022-08-03T05:46:14.768Z,17.90
2022-08-03T05:48:43.763Z,18.00
2022-08-03T05:51:12.072Z,18.16
2022-08-03T05:53:42.135Z,18.30
2022-08-03T05:56:14.428Z,18.50
2022-08-03T05:58:46.964Z,18.60
2022-08-03T06:01:17.394Z,18.70
2022-08-03T06:03:46.389Z,18.76
2022-08-03T06:06:14.789Z,18.80
2022-08-03T06:08:44.235Z,18.80
2022-08-03T06:11:12.722Z,18.80
2022-08-03T06:13:41.172Z,18.70
2022-08-03T06:16:09.763Z,18.74
2022-08-03T06:18:38.586Z,18.80
2022-08-03T06:21:14.422Z,18.80
2022-08-03T06:23:55.102Z,18.80
2022-08-03T06:26:26.569Z,18.80
2022-08-03T06:28:55.583Z,18.80
2022-08-03T06:31:32.767Z,18.80
2022-08-03T06:34:30.757Z,18.88
2022-08-03T06:36:58.476Z,18.90
2022-08-03T06:39:30.145Z,18.90
2022-08-03T06:41:58.272Z,18.90
2022-08-03T06:44:26.311Z,18.90
2022-08-03T06:46:54.063Z,18.90
2022-08-03T06:49:21.847Z,18.90
2022-08-03T06:52:04.356Z,18.90
2022-08-03T06:54:35.938Z,18.90
2022-08-03T06:57:05.184Z,18.96
2022-08-03T07:00:09.730Z,19.00
2022-08-03T07:02:20.897Z,19.00
2022-08-03T07:04:49.352Z,19.00
2022-08-03T07:07:17.950Z,19.00
2022-08-03T07:09:57.558Z,19.00
2022-08-03T07:12:30.594Z,19.10
2022-08-03T07:15:02.823Z,19.10
2022-08-03T07:17:36.028Z,19.10
2022-08-03T07:20:08.607Z,19.20
2022-08-03T07:22:36.441Z,19.20
2022-08-03T07:25:05.208Z,19.20
2022-08-03T07:27:33.942Z,19.30
2022-08-03T07:30:02.905Z,19.30
2022-08-03T07:32:31.793Z,19.40
2022-08-03T07:35:01.139Z,19.40
2022-08-03T07:37:30.958Z,19.50
2022-08-03T07:40:01.182Z,19.52
2022-08-03T07:42:31.360Z,19.60
2022-08-03T07:45:00.030Z,19.70
2022-08-03T07:47:35.492Z,19.80
2022-08-03T07:50:08.608Z,19.96
2022-08-03T07:52:49.688Z,20.10
2022-08-03T07:55:21.263Z,20.10
2022-08-03T07:58:12.557Z,20.18
2022-08-03T08:00:40.347Z,20.30
2022-08-03T08:03:08.910Z,20.44
2022-08-03T08:05:36.963Z,20.62
2022-08-03T08:08:05.229Z,20.74
2022-08-03T08:10:33.865Z,20.80
2022-08-03T08:13:03.538Z,20.90
2022-08-03T08:15:32.390Z,20.90
2022-08-03T08:18:02.794Z,20.90
2022-08-03T08:20:37.924Z,20.90
2022-08-03T08:23:09.627Z,20.90
2022-08-03T08:25:56.665Z,20.90
2022-08-03T08:28:32.370Z,20.90
2022-08-03T08:31:02.375Z,21.02
2022-08-03T08:33:54.219Z,21.20
2022-08-03T08:36:19.526Z,21.40
2022-08-03T08:38:47.779Z,21.60
2022-08-03T08:41:17.381Z,21.80
2022-08-03T08:43:47.815Z,21.90
2022-08-03T08:46:22.929Z,21.90
2022-08-03T08:48:54.493Z,21.90
2022-08-03T08:51:59.405Z,21.90
2022-08-03T08:54:22.399Z,22.00
2022-08-03T08:56:57.398Z,22.10
2022-08-03T08:59:26.260Z,22.34
2022-08-03T09:01:58.767Z,22.60
2022-08-03T09:04:29.312Z,22.80
2022-08-03T09:07:17.974Z,23.00
2022-08-03T09:10:10.110Z,23.00
2022-08-03T09:12:42.179Z,23.12
2022-08-03T09:15:39.211Z,23.20
2022-08-03T09:18:07.097Z,23.20
2022-08-03T09:20:37.094Z,23.20
2022-08-03T09:23:58.892Z,23.20
2022-08-03T09:26:00.031Z,23.20
2022-08-03T09:29:00.140Z,23.20
2022-08-03T09:31:45.467Z,23.20
2022-08-03T09:34:16.830Z,23.30
2022-08-03T09:36:47.330Z,23.30
2022-08-03T09:39:41.802Z,23.30
2022-08-03T09:42:17.502Z,23.40
2022-08-03T09:44:49.847Z,23.50
2022-08-03T09:47:30.319Z,23.60
2022-08-03T09:50:02.398Z,23.60
2022-08-03T09:52:50.139Z,23.70
2022-08-03T09:56:33.495Z,23.64
2022-08-03T09:58:13.630Z,23.50
2022-08-03T10:01:05.996Z,23.36
2022-08-03T10:04:02.729Z,23.26
2022-08-03T10:06:29.008Z,23.10
2022-08-03T10:09:11.130Z,23.00
2022-08-03T10:11:42.096Z,22.90
2022-08-03T10:14:19.635Z,23.00
2022-08-03T10:16:49.585Z,23.14
2022-08-03T10:19:17.620Z,23.30
2022-08-03T10:22:10.752Z,23.40
2022-08-03T10:24:44.181Z,23.60
2022-08-03T10:27:15.281Z,23.80
2022-08-03T10:29:55.149Z,23.90
2022-08-03T10:32:32.981Z,24.20
2022-08-03T10:35:20.066Z,24.30
2022-08-03T10:37:59.216Z,24.40
2022-08-03T10:40:48.204Z,24.50
2022-08-03T10:43:27.615Z,24.50
2022-08-03T10:45:56.757Z,24.50
2022-08-03T10:48:26.426Z,24.68
2022-08-03T10:50:55.520Z,24.86
2022-08-03T10:53:39.124Z,24.92
2022-08-03T10:56:51.095Z,25.10
2022-08-03T10:59:35.858Z,25.20
2022-08-03T11:02:03.712Z,25.26
2022-08-03T11:04:31.385Z,25.32
2022-08-03T11:07:18.736Z,25.50
2022-08-03T11:09:53.865Z,25.52
2022-08-03T11:12:33.680Z,25.50
2022-08-03T11:15:06.728Z,25.40
2022-08-03T11:17:46.150Z,25.48
2022-08-03T11:20:56.079Z,25.40
2022-08-03T11:24:03.048Z,25.40
2022-08-03T11:26:34.674Z,25.40
2022-08-03T11:29:31.296Z,25.40
2022-08-03T11:31:59.079Z,25.30
2022-08-03T11:34:26.910Z,25.30
2022-08-03T11:37:28.789Z,25.30
2022-08-03T11:39:59.325Z,25.40
2022-08-03T11:42:29.112Z,25.40
2022-08-03T11:44:59.727Z,25.40
2022-08-03T11:47:30.394Z,25.50
2022-08-03T11:50:02.248Z,25.60
2022-08-03T11:52:39.925Z,25.70
2022-08-03T11:55:13.877Z,25.80
2022-08-03T11:59:13.190Z,25.90
2022-08-03T12:00:32.625Z,26.00
2022-08-03T12:03:11.858Z,26.22
2022-08-03T12:05:51.297Z,26.30
2022-08-03T12:08:34.101Z,26.30
2022-08-03T12:11:06.791Z,26.30
2022-08-03T12:14:45.437Z,26.30
2022-08-03T12:16:28.636Z,25.90
2022-08-03T12:19:03.446Z,25.70
2022-08-03T12:21:32.252Z,25.70
2022-08-03T12:24:05.938Z,25.70
2022-08-03T12:26:58.093Z,25.50
2022-08-03T12:29:27.912Z,25.30
2022-08-03T12:31:56.391Z,25.16
2022-08-03T12:34:24.408Z,25.20
2022-08-03T12:36:56.831Z,25.40
2022-08-03T12:39:27.965Z,25.60
2022-08-03T12:41:57.590Z,25.70
2022-08-03T12:44:36.324Z,25.94
2022-08-03T12:47:06.770Z,26.10
2022-08-03T12:49:57.123Z,26.10
2022-08-03T12:52:27.250Z,26.00
2022-08-03T12:55:00.954Z,26.20
2022-08-03T12:57:42.481Z,26.40
2022-08-03T13:00:28.707Z,26.50
2022-08-03T13:05:55.415Z,26.16
2022-08-03T13:08:25.713Z,25.88
2022-08-03T13:10:54.025Z,25.60
2022-08-03T13:13:40.924Z,25.40
2022-08-03T13:16:08.634Z,25.52
2022-08-03T13:18:36.328Z,25.70
2022-08-03T13:21:05.957Z,25.70
2022-08-03T13:23:34.024Z,25.80
2022-08-03T13:26:01.733Z,25.90
2022-08-03T13:28:29.846Z,25.86
2022-08-03T13:30:57.608Z,25.70
2022-08-03T13:33:28.485Z,25.70
2022-08-03T13:35:56.905Z,25.96
2022-08-03T13:38:27.235Z,26.20
2022-08-03T13:40:56.177Z,26.40
2022-08-03T13:43:24.033Z,26.50
2022-08-03T13:45:54.980Z,26.50
2022-08-03T13:48:36.979Z,26.60
2022-08-03T13:51:22.092Z,26.52
2022-08-03T13:53:53.949Z,26.52
2022-08-03T13:56:21.725Z,26.70
2022-08-03T13:58:49.440Z,26.80
2022-08-03T14:01:18.575Z,27.00
2022-08-03T14:03:54.167Z,27.20
2022-08-03T14:06:23.356Z,27.30
2022-08-03T14:08:52.030Z,27.08
2022-08-03T14:11:19.960Z,26.72
2022-08-03T14:13:48.011Z,26.40
2022-08-03T14:16:16.944Z,26.20
2022-08-03T14:18:45.889Z,26.20
2022-08-03T14:21:14.075Z,26.20
2022-08-03T14:23:41.963Z,26.30
2022-08-03T14:26:11.987Z,26.12
2022-08-03T14:28:39.910Z,25.90
2022-08-03T14:31:08.562Z,25.80
2022-08-03T14:33:55.901Z,26.06
2022-08-03T14:36:23.636Z,26.10
2022-08-03T14:38:51.681Z,26.20
2022-08-03T14:41:20.357Z,26.30
2022-08-03T14:44:02.000Z,26.40
2022-08-03T14:46:31.780Z,26.50
2022-08-03T14:50:31.914Z,26.60
2022-08-03T14:51:53.540Z,26.70
2022-08-03T14:54:22.963Z,26.68
2022-08-03T14:56:51.627Z,26.50
2022-08-03T14:59:19.382Z,26.34
2022-08-03T15:02:04.627Z,26.20
2022-08-03T15:04:34.706Z,26.24
2022-08-03T15:07:03.508Z,26.30
2022-08-03T15:09:32.052Z,26.30
2022-08-03T15:11:59.872Z,26.40
2022-08-03T15:14:28.424Z,26.40
2022-08-03T15:17:01.668Z,26.40
2022-08-03T15:20:02.037Z,26.50
2022-08-03T15:22:20.736Z,26.50
2022-08-03T15:24:53.865Z,26.68
2022-08-03T15:27:22.458Z,26.70
2022-08-03T15:30:04.802Z,26.70
2022-08-03T15:32:37.662Z,26.70
2022-08-03T15:35:06.135Z,26.70
2022-08-03T15:37:33.998Z,26.80
2022-08-03T15:40:02.456Z,26.80
2022-08-03T15:42:32.813Z,26.80
2022-08-03T15:45:00.590Z,26.70
2022-08-03T15:47:28.317Z,26.60
2022-08-03T15:49:56.566Z,26.60
2022-08-03T15:52:24.424Z,26.52
2022-08-03T15:54:52.568Z,26.50
2022-08-03T15:57:21.199Z,26.50
2022-08-03T15:59:49.432Z,26.50
2022-08-03T16:02:17.415Z,26.50
2022-08-03T16:04:45.523Z,26.50
2022-08-03T16:07:15.918Z,26.50
2022-08-03T16:09:44.279Z,26.50
2022-08-03T16:12:16.046Z,26.46
2022-08-03T16:14:52.807Z,26.46
2022-08-03T16:17:22.707Z,26.50
2022-08-03T16:19:52.263Z,26.46
2022-08-03T16:22:26.392Z,26.30
2022-08-03T16:24:55.457Z,26.30
2022-08-03T16:27:56.561Z,26.30
2022-08-03T16:30:18.109Z,26.20
2022-08-03T16:32:47.402Z,26.30
2022-08-03T16:35:19.449Z,26.30
2022-08-03T16:37:54.678Z,26.30
2022-08-03T16:40:26.064Z,26.40
2022-08-03T16:42:54.149Z,26.30
2022-08-03T16:45:22.219Z,26.20
2022-08-03T16:48:01.780Z,26.30
2022-08-03T16:50:35.609Z,26.10
2022-08-03T16:53:09.043Z,26.00
2022-08-03T16:55:48.523Z,26.00
2022-08-03T16:58:34.223Z,25.92
2022-08-03T17:01:21.521Z,25.80
2022-08-03T17:04:01.317Z,25.52
2022-08-03T17:06:44.672Z,25.38
2022-08-03T17:09:18.988Z,25.10
2022-08-03T17:11:51.163Z,24.90
2022-08-03T17:14:29.250Z,25.10
2022-08-03T17:17:01.498Z,25.30
2022-08-03T17:19:31.456Z,25.30
2022-08-03T17:22:08.884Z,25.30
2022-08-03T17:24:41.105Z,25.20
2022-08-03T17:28:48.438Z,25.10
2022-08-03T17:30:13.550Z,24.90
2022-08-03T17:32:57.838Z,24.80
2022-08-03T17:35:34.527Z,24.66
2022-08-03T17:38:10.660Z,24.50
2022-08-03T17:40:49.942Z,24.40
2022-08-03T17:44:13.580Z,24.28
2022-08-03T17:46:22.805Z,24.20
2022-08-03T17:48:51.770Z,24.10
2022-08-03T17:51:48.815Z,24.06
2022-08-03T17:55:50.729Z,23.90
2022-08-03T17:58:02.218Z,23.90
2022-08-03T18:00:52.235Z,23.70
2022-08-03T18:03:57.847Z,23.60
2022-08-03T18:06:28.587Z,23.50
2022-08-03T18:09:04.791Z,23.42
2022-08-03T18:11:56.646Z,23.30
2022-08-03T18:15:01.436Z,23.30
2022-08-03T18:18:01.382Z,23.20
2022-08-03T18:20:38.493Z,23.20
2022-08-03T18:23:20.467Z,23.20
2022-08-03T18:26:06.843Z,23.10
2022-08-03T18:28:38.423Z,23.10
2022-08-03T18:31:11.896Z,23.00
2022-08-03T18:34:19.021Z,23.00
2022-08-03T18:36:31.097Z,23.00
2022-08-03T18:39:02.730Z,22.90
2022-08-03T18:41:35.189Z,22.90
2022-08-03T18:44:09.067Z,22.80
2022-08-03T18:47:52.304Z,22.78
2022-08-03T18:51:09.807Z,22.70
2022-08-03T18:54:07.403Z,22.60
2022-08-03T18:56:51.550Z,22.50
2022-08-03T18:59:46.905Z,22.40
2022-08-03T19:02:58.514Z,22.34
2022-08-03T19:05:56.512Z,22.22
2022-08-03T19:08:33.437Z,22.20
2022-08-03T19:11:05.918Z,22.16
2022-08-03T19:13:56.717Z,22.10
2022-08-03T19:16:39.565Z,22.10
2022-08-03T19:19:14.452Z,22.00
2022-08-03T19:21:46.014Z,22.00
2022-08-03T19:24:22.269Z,22.00
2022-08-03T19:26:56.167Z,21.98
2022-08-03T19:29:25.296Z,21.90
2022-08-03T19:32:19.628Z,21.90
2022-08-03T19:34:51.350Z,21.80
2022-08-03T19:37:22.097Z,21.70
2022-08-03T19:39:56.664Z,21.70
2022-08-03T19:42:37.791Z,21.70
2022-08-03T19:48:14.378Z,21.70
2022-08-03T19:50:44.588Z,21.66
2022-08-03T19:53:13.450Z,21.66
2022-08-03T19:55:46.444Z,21.60
2022-08-03T19:58:28.547Z,21.60
2022-08-03T20:00:57.635Z,21.60
2022-08-03T20:03:43.308Z,21.60
2022-08-03T20:06:12.545Z,21.50
2022-08-03T20:08:48.211Z,21.50
2022-08-03T20:11:21.052Z,21.40
2022-08-03T20:13:58.518Z,21.30
2022-08-03T20:16:26.881Z,21.22
2022-08-03T20:18:54.717Z,21.20
2022-08-03T20:21:28.508Z,21.20
2022-08-03T20:24:24.598Z,21.20
2022-08-03T20:26:55.345Z,21.20
2022-08-03T20:30:05.314Z,21.20
2022-08-03T20:32:24.964Z,21.20
2022-08-03T20:34:53.336Z,21.16
2022-08-03T20:37:21.386Z,21.10
2022-08-03T20:39:49.807Z,21.10
2022-08-03T20:42:21.640Z,21.10
2022-08-03T20:45:06.216Z,21.10
2022-08-03T20:47:50.940Z,21.10
2022-08-03T20:50:22.090Z,21.00
2022-08-03T20:52:50.580Z,21.00
2022-08-03T20:55:20.376Z,21.00
2022-08-03T20:58:07.954Z,21.00
2022-08-03T21:00:35.765Z,20.90
2022-08-03T21:03:04.063Z,20.82
2022-08-03T21:05:48.219Z,20.80
2022-08-03T21:08:24.503Z,20.70
2022-08-03T21:10:57.047Z,20.70
2022-08-03T21:13:02.805Z,21.68
2022-08-03T21:13:40.654Z,20.60
2022-08-03T21:16:14.995Z,20.60
2022-08-03T21:18:48.939Z,20.50
2022-08-03T21:21:22.108Z,20.48
2022-08-03T21:23:54.770Z,20.50
2022-08-03T21:26:26.209Z,20.50
2022-08-03T21:28:56.922Z,20.50
2022-08-03T21:31:26.988Z,20.50
2022-08-03T21:33:59.605Z,20.50
2022-08-03T21:36:31.847Z,20.48
2022-08-03T21:39:01.321Z,20.40
2022-08-03T21:41:32.777Z,20.40
2022-08-03T21:44:01.925Z,20.40
2022-08-03T21:46:41.244Z,20.30
2022-08-03T21:50:07.443Z,20.30
2022-08-03T21:52:05.836Z,20.20
2022-08-03T21:54:42.754Z,20.20
2022-08-03T21:57:24.039Z,20.10
2022-08-03T22:00:01.671Z,20.10
2022-08-03T22:02:32.352Z,20.00
2022-08-03T22:05:00.625Z,20.00
2022-08-03T22:07:34.928Z,20.00
2022-08-03T22:10:06.504Z,19.90
2022-08-03T22:12:35.849Z,19.80
2022-08-03T22:15:09.762Z,19.70
2022-08-03T22:17:55.621Z,19.52
2022-08-03T22:20:25.652Z,19.40
2022-08-03T22:22:57.526Z,19.30
2022-08-03T22:25:33.136Z,19.30
2022-08-03T22:28:07.595Z,19.20
2022-08-03T22:30:37.540Z,19.10
2022-08-03T22:33:11.043Z,18.90
2022-08-03T22:35:47.928Z,18.80
2022-08-03T22:38:18.831Z,18.70
2022-08-03T22:40:50.991Z,18.56
2022-08-03T22:43:24.857Z,18.46
2022-08-03T22:46:08.970Z,18.40
2022-08-03T22:48:40.794Z,18.30
2022-08-03T22:51:10.509Z,18.30
2022-08-03T22:53:40.688Z,18.30
2022-08-03T22:56:09.060Z,18.30
2022-08-03T22:58:37.184Z,18.30
2022-08-03T23:01:11.877Z,18.30
2022-08-03T23:03:59.854Z,18.30
2022-08-03T23:06:40.469Z,18.30
2022-08-03T23:09:13.967Z,18.30
2022-08-03T23:11:45.401Z,18.30
2022-08-03T23:14:18.466Z,18.20
2022-08-03T23:16:48.084Z,18.20
2022-08-03T23:19:25.045Z,18.12
2022-08-03T23:22:02.341Z,18.10
2022-08-03T23:24:37.155Z,18.00
2022-08-03T23:27:07.759Z,17.90
2022-08-03T23:29:38.471Z,17.80
2022-08-03T23:32:07.317Z,17.70
2022-08-03T23:34:57.817Z,17.70
2022-08-03T23:37:26.768Z,17.70
2022-08-03T23:39:57.319Z,17.70
2022-08-03T23:42:27.376Z,17.70
2022-08-03T23:45:04.715Z,17.62
2022-08-03T23:47:46.446Z,17.52
2022-08-03T23:50:16.829Z,17.50
2022-08-03T23:53:19.366Z,17.40
2022-08-03T23:55:52.963Z,17.30
2022-08-03T23:59:10.737Z,17.22
